createdAt,value
2023-06-17T00:04:38.341Z,20.02
2023-06-17T00:10:25.118Z,18.33
2023-06-17T00:16:13.973Z,23.40
2023-06-17T00:22:02.860Z,15.32
2023-06-17T00:27:52.111Z,19.27
2023-06-17T00:33:41.446Z,18.17
2023-06-17T00:39:29.656Z,24.90
2023-06-17T00:45:18.630Z,29.80
2023-06-17T00:51:15.796Z,16.42
2023-06-17T00:57:17.138Z,23.80
2023-06-17T01:03:06.588Z,22.88
2023-06-17T01:09:02.745Z,17.40
2023-06-17T01:14:50.797Z,17.08
2023-06-17T01:20:37.811Z,20.50
2023-06-17T01:26:29.433Z,28.60
2023-06-17T01:32:18.004Z,21.70
2023-06-17T01:38:22.243Z,19.70
2023-06-17T01:44:09.969Z,22.95
2023-06-17T01:49:59.919Z,29.33
2023-06-17T01:55:47.050Z,15.48
2023-06-17T02:01:33.893Z,15.00
2023-06-17T02:07:26.851Z,23.50
2023-06-17T02:13:13.746Z,17.98
2023-06-17T02:19:03.538Z,22.75
2023-06-17T02:24:50.817Z,20.67
2023-06-17T02:30:37.547Z,15.25
2023-06-17T02:36:25.795Z,21.42
2023-06-17T02:42:16.438Z,23.05
2023-06-17T02:48:03.802Z,16.13
2023-06-17T02:53:51.257Z,18.02
2023-06-17T02:59:41.978Z,15.10
2023-06-17T03:05:31.658Z,19.05
2023-06-17T03:11:19.686Z,12.35
2023-06-17T03:17:07.354Z,7.88
2023-06-17T03:22:55.227Z,10.63
2023-06-17T03:28:42.082Z,8.57
2023-06-17T03:34:28.875Z,10.65
2023-06-17T03:40:16.669Z,9.95
2023-06-17T03:46:03.860Z,9.43
2023-06-17T03:51:51.176Z,8.02
2023-06-17T03:57:38.260Z,9.32
2023-06-17T04:03:26.636Z,16.40
2023-06-17T04:09:15.416Z,15.27
2023-06-17T04:15:02.341Z,13.38
2023-06-17T04:20:50.743Z,15.77
2023-06-17T04:26:38.980Z,14.63
2023-06-17T04:32:28.702Z,11.77
2023-06-17T04:38:23.247Z,8.27
2023-06-17T04:44:11.606Z,15.18
2023-06-17T04:49:59.083Z,10.90
2023-06-17T04:55:46.052Z,12.00
2023-06-17T05:01:33.311Z,8.52
2023-06-17T05:07:22.489Z,9.20
2023-06-17T05:13:09.277Z,8.80
2023-06-17T05:18:56.784Z,25.02
2023-06-17T05:24:44.669Z,11.63
2023-06-17T05:30:31.643Z,6.68
2023-06-17T05:36:26.214Z,10.73
2023-06-17T05:42:13.875Z,7.13
2023-06-17T05:48:01.862Z,10.15
2023-06-17T05:53:51.736Z,9.15
2023-06-17T05:59:39.027Z,7.97
2023-06-17T06:05:26.115Z,8.15
2023-06-17T06:11:13.138Z,5.18
2023-06-17T06:17:00.376Z,13.23
2023-06-17T06:22:48.028Z,5.97
2023-06-17T06:28:34.916Z,14.02
2023-06-17T06:34:23.423Z,5.15
2023-06-17T06:40:10.997Z,5.25
2023-06-17T06:45:59.262Z,14.40
2023-06-17T06:51:49.823Z,6.07
2023-06-17T06:57:38.058Z,5.65
2023-06-17T07:03:25.124Z,9.50
2023-06-17T07:09:12.759Z,4.32
2023-06-17T07:15:00.271Z,6.10
2023-06-17T07:20:48.912Z,5.55
2023-06-17T07:26:39.752Z,3.70
2023-06-17T07:32:26.800Z,5.72
2023-06-17T07:38:14.555Z,4.72
2023-06-17T07:44:01.630Z,5.22
2023-06-17T07:49:49.209Z,3.67
2023-06-17T07:55:37.930Z,3.30
2023-06-17T08:01:25.660Z,6.90
2023-06-17T08:07:17.214Z,2.95
2023-06-17T08:13:04.534Z,3.28
2023-06-17T08:18:53.571Z,7.43
2023-06-17T08:24:42.373Z,9.30
2023-06-17T08:30:31.808Z,7.07
2023-06-17T08:36:18.523Z,5.65
2023-06-17T08:42:08.747Z,6.95
2023-06-17T08:47:56.165Z,4.93
2023-06-17T08:53:45.797Z,7.57
2023-06-17T08:59:32.806Z,5.40
2023-06-17T09:05:21.165Z,8.95
2023-06-17T09:11:08.001Z,7.10
2023-06-17T09:16:54.956Z,7.03
2023-06-17T09:22:44.577Z,4.93
2023-06-17T09:28:32.708Z,3.38
2023-06-17T09:34:21.429Z,7.72
2023-06-17T09:40:09.558Z,6.10
2023-06-17T09:46:01.502Z,12.43
2023-06-17T09:51:48.839Z,8.63
2023-06-17T09:57:38.070Z,4.95
2023-06-17T10:03:30.102Z,5.00
2023-06-17T10:09:26.199Z,5.18
2023-06-17T10:15:15.963Z,7.20
2023-06-17T10:21:04.581Z,4.70
2023-06-17T10:26:52.294Z,5.88
2023-06-17T10:32:39.773Z,9.27
2023-06-17T10:38:31.762Z,12.13
2023-06-17T10:44:22.106Z,9.40
2023-06-17T10:50:13.281Z,5.97
2023-06-17T10:56:01.951Z,7.10
2023-06-17T11:01:49.857Z,11.93
2023-06-17T11:07:37.288Z,10.55
2023-06-17T11:13:24.259Z,11.15
2023-06-17T11:19:15.080Z,15.07
2023-06-17T11:25:02.259Z,14.70
2023-06-17T11:30:51.009Z,5.38
2023-06-17T11:36:38.197Z,7.40
2023-06-17T11:42:27.612Z,9.88
2023-06-17T11:48:14.363Z,8.23
2023-06-17T11:54:05.691Z,9.88
2023-06-17T11:59:58.765Z,11.13
2023-06-17T12:05:45.692Z,10.27
2023-06-17T12:11:36.925Z,7.97
2023-06-17T12:17:26.838Z,7.60
2023-06-17T12:23:13.900Z,8.35
2023-06-17T12:29:11.664Z,12.30
2023-06-17T12:35:09.123Z,9.63
2023-06-17T12:40:56.610Z,8.55
2023-06-17T12:46:45.567Z,11.48
2023-06-17T12:52:32.492Z,7.80
2023-06-17T12:58:20.789Z,4.88
2023-06-17T13:04:08.390Z,7.20
2023-06-17T13:09:57.206Z,6.90
2023-06-17T13:15:48.607Z,5.65
2023-06-17T13:21:35.684Z,5.67
2023-06-17T13:27:22.506Z,8.40
2023-06-17T13:33:09.313Z,5.57
2023-06-17T13:38:56.408Z,11.98
2023-06-17T13:44:45.478Z,8.88
2023-06-17T13:50:37.584Z,6.18
2023-06-17T13:56:29.507Z,8.70
2023-06-17T14:02:16.827Z,11.45
2023-06-17T14:08:08.659Z,8.02
2023-06-17T14:14:08.885Z,15.93
2023-06-17T14:19:55.656Z,8.32
2023-06-17T14:25:42.622Z,11.20
2023-06-17T14:31:34.397Z,7.90
2023-06-17T14:37:25.442Z,7.10
2023-06-17T14:43:15.498Z,5.67
2023-06-17T14:49:03.228Z,9.73
2023-06-17T14:54:54.913Z,9.63
2023-06-17T15:00:42.335Z,6.93
2023-06-17T15:06:30.624Z,7.07
2023-06-17T15:12:27.475Z,8.52
2023-06-17T15:18:17.124Z,13.57
2023-06-17T15:24:04.337Z,8.82
2023-06-17T15:29:51.307Z,6.32
2023-06-17T15:35:38.123Z,9.35
2023-06-17T15:41:27.176Z,8.68
2023-06-17T15:47:16.148Z,10.20
2023-06-17T15:53:07.723Z,7.07
2023-06-17T15:58:55.141Z,9.20
2023-06-17T16:04:42.614Z,8.02
2023-06-17T16:10:31.386Z,5.10
2023-06-17T16:16:25.445Z,9.55
2023-06-17T16:23:07.994Z,7.00
2023-06-17T16:28:57.233Z,8.13
2023-06-17T16:34:44.377Z,10.45
2023-06-17T16:40:31.351Z,11.98
2023-06-17T16:46:18.808Z,12.95
2023-06-17T16:52:05.963Z,9.60
2023-06-17T16:57:54.920Z,4.50
2023-06-17T17:03:41.823Z,10.32
2023-06-17T17:09:29.110Z,14.10
2023-06-17T17:15:17.253Z,6.65
2023-06-17T17:21:04.164Z,7.38
2023-06-17T17:26:52.924Z,8.00
2023-06-17T17:32:39.699Z,9.77
2023-06-17T17:38:28.498Z,7.00
2023-06-17T17:44:15.287Z,10.27
2023-06-17T17:50:02.328Z,8.75
2023-06-17T17:55:49.169Z,10.80
2023-06-17T18:01:35.918Z,11.68
2023-06-17T18:07:22.654Z,9.55
2023-06-17T18:13:12.061Z,23.15
2023-06-17T18:18:58.899Z,18.27
2023-06-17T18:24:46.130Z,14.38
2023-06-17T18:30:32.988Z,10.82
2023-06-17T18:36:20.314Z,10.23
2023-06-17T18:42:09.842Z,24.92
2023-06-17T18:47:56.909Z,17.20
2023-06-17T18:53:46.593Z,7.60
2023-06-17T18:59:33.711Z,20.10
2023-06-17T19:05:21.134Z,16.60
2023-06-17T19:11:08.857Z,13.80
2023-06-17T19:16:56.579Z,15.85
2023-06-17T19:22:44.203Z,15.13
2023-06-17T19:28:39.883Z,15.85
2023-06-17T19:34:32.606Z,14.32
2023-06-17T19:40:20.324Z,17.17
2023-06-17T19:46:09.810Z,19.20
2023-06-17T19:52:01.014Z,13.60
2023-06-17T19:57:47.994Z,11.65
2023-06-17T20:03:35.538Z,16.38
2023-06-17T20:09:22.840Z,10.05
2023-06-17T20:15:10.381Z,11.52
2023-06-17T20:20:57.731Z,10.48
2023-06-17T20:26:44.924Z,12.75
2023-06-17T20:32:35.143Z,13.70
2023-06-17T20:38:22.198Z,18.08
2023-06-17T20:44:13.438Z,18.48
2023-06-17T20:50:03.787Z,11.43
2023-06-17T20:55:52.324Z,13.35
2023-06-17T21:01:39.899Z,14.75
2023-06-17T21:07:26.627Z,16.05
2023-06-17T21:13:16.624Z,12.45
2023-06-17T21:19:09.843Z,20.15
2023-06-17T21:24:56.600Z,16.80
2023-06-17T21:30:43.899Z,13.85
2023-06-17T21:36:31.264Z,13.95
2023-06-17T21:42:20.857Z,25.02
2023-06-17T21:48:13.513Z,15.32
2023-06-17T21:54:02.889Z,18.55
2023-06-17T21:59:49.720Z,18.25
2023-06-17T22:05:44.923Z,16.98
2023-06-17T22:11:54.218Z,17.23
2023-06-17T22:17:54.114Z,18.05
2023-06-17T22:23:55.187Z,12.48
2023-06-17T22:30:12.459Z,14.88
2023-06-17T22:36:12.380Z,14.55
2023-06-17T22:41:59.706Z,18.08
2023-06-17T22:47:50.308Z,22.05
2023-06-17T22:53:37.386Z,21.35
2023-06-17T22:59:27.760Z,16.77
2023-06-17T23:05:17.047Z,17.42
2023-06-17T23:11:12.841Z,15.63
2023-06-17T23:16:59.663Z,24.80
2023-06-17T23:22:52.854Z,15.23
2023-06-17T23:29:04.923Z,18.52
2023-06-17T23:35:23.468Z,16.63
2023-06-17T23:47:38.492Z,18.33
2023-06-17T23:48:57.229Z,20.52
2023-06-17T23:53:27.245Z,14.80
2023-06-17T23:59:13.867Z,15.23
